createdAt,value
2019-05-20T00:00:52.529Z,3.55
2019-05-20T00:03:21.286Z,3.20
2019-05-20T00:05:50.147Z,2.83
2019-05-20T00:08:19.004Z,3.30
2019-05-20T00:10:47.754Z,3.00
2019-05-20T00:13:16.465Z,3.12
2019-05-20T00:15:45.178Z,2.75
2019-05-20T00:18:13.912Z,3.05
2019-05-20T00:20:42.631Z,2.90
2019-05-20T00:23:11.358Z,2.75
2019-05-20T00:25:40.078Z,2.98
2019-05-20T00:28:08.809Z,3.12
2019-05-20T00:30:37.534Z,2.77
2019-05-20T00:33:06.261Z,2.70
2019-05-20T00:35:35.421Z,3.15
2019-05-20T00:38:04.192Z,3.02
2019-05-20T00:40:32.923Z,2.75
2019-05-20T00:43:01.657Z,3.25
2019-05-20T00:45:31.752Z,3.05
2019-05-20T00:48:03.541Z,2.50
2019-05-20T00:50:33.164Z,2.67
2019-05-20T00:53:01.884Z,2.55
2019-05-20T00:55:32.429Z,2.40
2019-05-20T00:58:01.203Z,2.70
2019-05-20T01:00:30.194Z,2.70
2019-05-20T01:02:58.986Z,2.60
2019-05-20T01:05:28.973Z,2.35
2019-05-20T01:07:57.639Z,2.12
2019-05-20T01:10:26.373Z,2.75
2019-05-20T01:12:55.207Z,2.45
2019-05-20T01:15:23.920Z,2.87
2019-05-20T01:17:52.644Z,2.72
2019-05-20T01:20:21.772Z,3.20
2019-05-20T01:22:50.540Z,2.62
2019-05-20T01:25:19.255Z,3.83
2019-05-20T01:27:48.111Z,2.70
2019-05-20T01:30:17.620Z,2.92
2019-05-20T01:32:48.654Z,2.37
2019-05-20T01:35:17.377Z,2.30
2019-05-20T01:37:46.167Z,2.50
2019-05-20T01:40:15.211Z,2.70
2019-05-20T01:42:44.014Z,2.87
2019-05-20T01:45:13.146Z,2.83
2019-05-20T01:47:42.457Z,2.70
2019-05-20T01:50:14.264Z,2.62
2019-05-20T01:52:42.975Z,2.70
2019-05-20T01:55:12.527Z,2.60
2019-05-20T01:57:41.247Z,2.87
2019-05-20T02:00:10.930Z,3.33
2019-05-20T02:02:39.641Z,2.95
2019-05-20T02:05:08.813Z,2.90
2019-05-20T02:07:37.531Z,2.90
2019-05-20T02:10:09.618Z,3.15
2019-05-20T02:12:39.656Z,3.22
2019-05-20T02:15:10.664Z,2.95
2019-05-20T02:17:39.413Z,2.95
2019-05-20T02:20:08.431Z,3.47
2019-05-20T02:22:37.113Z,3.20
2019-05-20T02:25:06.533Z,4.55
2019-05-20T02:27:35.321Z,4.85
2019-05-20T02:30:08.084Z,4.87
2019-05-20T02:32:36.800Z,4.30
2019-05-20T02:35:06.834Z,4.70
2019-05-20T02:37:35.819Z,4.05
2019-05-20T02:40:07.544Z,3.83
2019-05-20T02:42:36.234Z,4.17
2019-05-20T02:45:07.415Z,3.75
2019-05-20T02:47:36.135Z,4.00
2019-05-20T02:50:06.254Z,4.10
2019-05-20T02:52:35.493Z,3.77
2019-05-20T02:55:06.176Z,3.85
2019-05-20T02:57:35.498Z,3.67
2019-05-20T03:00:06.831Z,4.40
2019-05-20T03:02:35.554Z,4.12
2019-05-20T03:05:06.043Z,4.20
2019-05-20T03:07:34.836Z,4.50
2019-05-20T03:10:04.597Z,4.22
2019-05-20T03:12:33.321Z,4.35
2019-05-20T03:15:02.043Z,4.75
2019-05-20T03:17:30.757Z,5.20
2019-05-20T03:19:59.582Z,5.25
2019-05-20T03:22:28.285Z,5.58
2019-05-20T03:24:57.016Z,5.87
2019-05-20T03:27:26.744Z,6.55
2019-05-20T03:29:55.469Z,6.45
2019-05-20T03:32:24.189Z,6.00
2019-05-20T03:34:59.356Z,6.85
2019-05-20T03:37:23.403Z,6.75
2019-05-20T03:39:52.167Z,5.95
2019-05-20T03:42:22.440Z,5.72
2019-05-20T03:44:53.307Z,6.65
2019-05-20T03:47:22.041Z,6.08
2019-05-20T03:49:50.777Z,8.33
2019-05-20T03:52:20.285Z,6.62
2019-05-20T03:54:49.021Z,5.70
2019-05-20T03:57:17.746Z,6.00
2019-05-20T03:59:46.462Z,6.60
2019-05-20T04:02:15.214Z,6.42
2019-05-20T04:05:00.735Z,5.80
2019-05-20T04:07:14.452Z,6.00
2019-05-20T04:09:45.343Z,5.62
2019-05-20T04:12:17.819Z,6.05
2019-05-20T04:14:46.584Z,6.60
2019-05-20T04:17:15.584Z,5.87
2019-05-20T04:19:44.486Z,5.33
2019-05-20T04:22:13.245Z,5.58
2019-05-20T04:24:41.958Z,5.87
2019-05-20T04:27:10.696Z,5.87
2019-05-20T04:29:39.447Z,5.87
2019-05-20T04:32:08.145Z,6.15
2019-05-20T04:34:36.906Z,6.90
2019-05-20T04:37:05.754Z,6.22
2019-05-20T04:39:34.577Z,5.45
2019-05-20T04:42:06.457Z,5.85
2019-05-20T04:44:33.936Z,5.97
2019-05-20T04:47:03.012Z,6.22
2019-05-20T04:49:31.801Z,6.60
2019-05-20T04:52:00.530Z,6.92
2019-05-20T04:54:29.363Z,6.10
2019-05-20T04:56:58.238Z,5.35
2019-05-20T04:59:26.966Z,5.42
2019-05-20T05:01:55.780Z,6.42
2019-05-20T05:04:24.570Z,5.47
2019-05-20T05:06:53.287Z,5.17
2019-05-20T05:09:22.112Z,5.47
2019-05-20T05:11:50.861Z,5.90
2019-05-20T05:14:19.667Z,6.17
2019-05-20T05:16:48.383Z,6.72
2019-05-20T05:19:17.149Z,6.65
2019-05-20T05:21:45.958Z,8.08
2019-05-20T05:24:14.670Z,8.43
2019-05-20T05:26:43.432Z,7.67
2019-05-20T05:29:12.153Z,5.95
2019-05-20T05:31:40.879Z,6.25
2019-05-20T05:34:09.646Z,5.40
2019-05-20T05:36:38.339Z,6.15
2019-05-20T05:39:07.372Z,6.67
2019-05-20T05:41:36.147Z,6.15
2019-05-20T05:44:04.927Z,6.58
2019-05-20T05:46:33.735Z,6.90
2019-05-20T05:49:03.016Z,5.85
2019-05-20T05:51:31.770Z,5.87
2019-05-20T05:54:03.045Z,6.08
2019-05-20T05:56:31.754Z,5.85
2019-05-20T05:59:00.484Z,6.05
2019-05-20T06:01:29.365Z,5.37
2019-05-20T06:03:58.158Z,5.28
2019-05-20T06:06:26.865Z,5.47
2019-05-20T06:08:55.688Z,5.65
2019-05-20T06:11:24.506Z,6.03
2019-05-20T06:13:53.244Z,5.95
2019-05-20T06:16:36.125Z,5.67
2019-05-20T06:18:52.340Z,5.70
2019-05-20T06:21:21.063Z,5.22
2019-05-20T06:23:49.793Z,4.78
2019-05-20T06:26:18.506Z,4.80
2019-05-20T06:28:47.236Z,4.30
2019-05-20T06:31:16.123Z,5.03
2019-05-20T06:33:44.848Z,4.25
2019-05-20T06:36:26.056Z,4.97
2019-05-20T06:38:45.518Z,5.17
2019-05-20T06:41:14.353Z,5.47
2019-05-20T06:43:43.068Z,6.03
2019-05-20T06:46:11.789Z,6.42
2019-05-20T06:48:40.636Z,6.45
2019-05-20T06:51:09.485Z,5.37
2019-05-20T06:53:38.200Z,5.70
2019-05-20T06:56:06.930Z,6.53
2019-05-20T06:58:35.687Z,5.78
2019-05-20T07:01:04.457Z,5.22
2019-05-20T07:03:33.599Z,5.62
2019-05-20T07:06:02.310Z,7.60
2019-05-20T07:08:31.047Z,4.40
2019-05-20T07:10:59.811Z,5.12
2019-05-20T07:13:28.539Z,4.72
2019-05-20T07:15:57.262Z,4.65
2019-05-20T07:18:27.544Z,5.10
2019-05-20T07:20:56.421Z,5.08
2019-05-20T07:23:25.186Z,5.22
2019-05-20T07:25:53.927Z,5.83
2019-05-20T07:28:23.149Z,5.42
2019-05-20T07:30:51.862Z,5.00
2019-05-20T07:33:20.680Z,5.30
2019-05-20T07:35:49.388Z,4.70
2019-05-20T07:38:18.120Z,4.53
2019-05-20T07:40:46.833Z,5.00
2019-05-20T07:43:15.690Z,4.47
2019-05-20T07:45:45.121Z,3.30
2019-05-20T07:48:14.250Z,4.10
2019-05-20T07:50:44.154Z,4.33
2019-05-20T07:53:13.401Z,4.15
2019-05-20T07:55:47.729Z,4.10
2019-05-20T07:58:18.495Z,4.58
2019-05-20T08:00:47.410Z,5.28
2019-05-20T08:03:16.153Z,4.35
2019-05-20T08:05:45.075Z,4.40
2019-05-20T08:08:14.028Z,4.60
2019-05-20T08:10:42.936Z,4.15
2019-05-20T08:13:11.715Z,4.47
2019-05-20T08:15:40.512Z,4.25
2019-05-20T08:18:09.278Z,4.00
2019-05-20T08:20:38.010Z,3.20
2019-05-20T08:23:08.011Z,4.70
2019-05-20T08:25:36.652Z,3.55
2019-05-20T08:28:05.690Z,3.65
2019-05-20T08:30:36.812Z,3.33
2019-05-20T08:33:06.532Z,3.52
2019-05-20T08:35:35.419Z,4.30
2019-05-20T08:38:04.219Z,3.05
2019-05-20T08:40:32.945Z,3.62
2019-05-20T08:43:01.788Z,4.22
2019-05-20T08:45:30.503Z,3.92
2019-05-20T08:47:59.229Z,3.35
2019-05-20T08:50:29.047Z,3.00
2019-05-20T08:52:57.706Z,3.02
2019-05-20T08:55:26.446Z,3.33
2019-05-20T08:57:55.187Z,3.30
2019-05-20T09:00:24.681Z,5.00
2019-05-20T09:02:53.936Z,3.77
2019-05-20T09:05:22.796Z,4.15
2019-05-20T09:08:02.184Z,3.90
2019-05-20T09:10:22.105Z,4.10
2019-05-20T09:12:50.822Z,4.10
2019-05-20T09:15:19.810Z,4.42
2019-05-20T09:17:48.534Z,4.05
2019-05-20T09:20:18.060Z,4.85
2019-05-20T09:22:46.773Z,4.60
2019-05-20T09:25:16.484Z,5.03
2019-05-20T09:27:45.230Z,4.00
2019-05-20T09:30:14.470Z,4.22
2019-05-20T09:32:43.456Z,4.10
2019-05-20T09:35:12.334Z,3.50
2019-05-20T09:37:41.152Z,3.60
2019-05-20T09:40:10.285Z,4.00
2019-05-20T09:42:41.073Z,4.33
2019-05-20T09:45:10.399Z,3.90
2019-05-20T09:47:39.206Z,3.62
2019-05-20T09:50:08.124Z,3.37
2019-05-20T09:52:36.813Z,3.95
2019-05-20T09:55:07.200Z,3.77
2019-05-20T09:57:36.161Z,3.98
2019-05-20T10:00:07.137Z,3.30
2019-05-20T10:02:38.228Z,3.60
2019-05-20T10:05:07.000Z,3.37
2019-05-20T10:07:35.755Z,3.30
2019-05-20T10:10:07.123Z,3.47
2019-05-20T10:12:45.927Z,3.70
2019-05-20T10:15:07.734Z,3.45
2019-05-20T10:17:36.518Z,3.05
2019-05-20T10:20:09.497Z,3.12
2019-05-20T10:22:38.289Z,3.00
2019-05-20T10:25:08.619Z,2.85
2019-05-20T10:27:37.446Z,2.50
2019-05-20T10:30:08.549Z,1.60
2019-05-20T10:35:07.676Z,1.60
2019-05-20T10:40:07.987Z,1.90
2019-05-20T10:42:36.702Z,2.12
2019-05-20T10:45:06.257Z,2.12
2019-05-20T10:47:35.884Z,1.82
2019-05-20T10:50:06.379Z,1.85
2019-05-20T10:52:35.150Z,2.12
2019-05-20T10:55:05.027Z,1.70
2019-05-20T10:57:33.749Z,2.15
2019-05-20T11:00:02.504Z,1.72
2019-05-20T11:02:31.454Z,1.85
2019-05-20T11:05:00.277Z,2.00
2019-05-20T11:07:28.966Z,2.02
2019-05-20T11:09:57.689Z,1.90
2019-05-20T11:12:26.482Z,2.02
2019-05-20T11:14:55.185Z,2.05
2019-05-20T11:17:23.919Z,2.37
2019-05-20T11:19:52.676Z,2.40
2019-05-20T11:22:21.401Z,2.00
2019-05-20T11:24:50.163Z,2.10
2019-05-20T11:27:18.856Z,2.10
2019-05-20T11:29:47.574Z,1.92
2019-05-20T11:32:16.370Z,2.22
2019-05-20T11:34:45.206Z,3.42
2019-05-20T11:37:14.005Z,2.25
2019-05-20T11:39:42.781Z,2.35
2019-05-20T11:42:11.506Z,2.50
2019-05-20T11:44:40.283Z,2.30
2019-05-20T11:47:09.022Z,2.45
2019-05-20T11:49:37.911Z,2.50
2019-05-20T11:52:06.623Z,2.50
2019-05-20T11:54:35.447Z,2.60
2019-05-20T11:57:04.188Z,2.62
2019-05-20T11:59:32.913Z,2.25
2019-05-20T12:02:03.987Z,2.72
2019-05-20T12:04:32.051Z,2.42
2019-05-20T12:07:00.780Z,2.65
2019-05-20T12:09:29.587Z,2.50
2019-05-20T12:11:58.422Z,2.75
2019-05-20T12:14:27.146Z,2.60
2019-05-20T12:16:55.920Z,2.67
2019-05-20T12:19:24.660Z,3.00
2019-05-20T12:21:53.518Z,2.83
2019-05-20T12:24:22.232Z,1.90
2019-05-20T12:26:50.952Z,2.40
2019-05-20T12:29:19.674Z,2.20
2019-05-20T12:31:48.392Z,2.55
2019-05-20T12:34:17.135Z,2.20
2019-05-20T12:36:46.062Z,1.82
2019-05-20T12:39:14.908Z,1.52
2019-05-20T12:41:43.721Z,2.30
2019-05-20T12:44:13.195Z,1.92
2019-05-20T12:46:42.102Z,2.35
2019-05-20T12:49:10.927Z,1.62
2019-05-20T12:51:39.849Z,2.37
2019-05-20T12:54:08.566Z,2.08
2019-05-20T12:56:37.292Z,2.50
2019-05-20T12:59:06.084Z,2.92
2019-05-20T13:01:35.119Z,3.80
2019-05-20T13:04:04.068Z,5.62
2019-05-20T13:06:32.800Z,3.27
2019-05-20T13:09:01.528Z,3.00
2019-05-20T13:11:30.244Z,2.30
2019-05-20T13:13:59.034Z,2.10
2019-05-20T13:16:27.931Z,2.77
2019-05-20T13:18:58.118Z,2.92
2019-05-20T13:21:26.916Z,3.10
2019-05-20T13:23:57.477Z,2.42
2019-05-20T13:26:26.097Z,2.45
2019-05-20T13:28:59.152Z,2.37
2019-05-20T13:31:25.577Z,2.58
2019-05-20T13:33:54.455Z,2.87
2019-05-20T13:36:23.147Z,2.52
2019-05-20T13:38:53.096Z,2.00
2019-05-20T13:41:21.810Z,2.10
2019-05-20T13:43:52.828Z,2.37
2019-05-20T13:48:49.554Z,2.27
2019-05-20T13:51:18.295Z,2.92
2019-05-20T13:53:47.012Z,3.20
2019-05-20T13:56:15.808Z,3.20
2019-05-20T13:58:44.631Z,2.45
2019-05-20T14:01:13.366Z,2.47
2019-05-20T14:03:42.084Z,2.37
2019-05-20T14:06:10.845Z,2.60
2019-05-20T14:08:39.601Z,2.40
2019-05-20T14:11:08.364Z,2.65
2019-05-20T14:13:37.666Z,2.77
2019-05-20T14:16:06.387Z,2.20
2019-05-20T14:18:35.141Z,2.98
2019-05-20T14:21:03.908Z,2.77
2019-05-20T14:23:32.675Z,2.55
2019-05-20T14:26:01.398Z,2.80
2019-05-20T14:28:30.136Z,3.22
2019-05-20T14:31:00.427Z,2.50
2019-05-20T14:33:29.202Z,2.42
2019-05-20T14:35:57.877Z,2.30
2019-05-20T14:38:26.689Z,2.60
2019-05-20T14:40:55.401Z,2.30
2019-05-20T14:43:25.277Z,2.37
2019-05-20T14:45:53.967Z,2.17
2019-05-20T14:48:22.684Z,2.33
2019-05-20T14:50:51.400Z,2.20
2019-05-20T14:53:20.140Z,2.67
2019-05-20T14:55:48.865Z,2.37
2019-05-20T14:58:17.598Z,3.50
2019-05-20T15:00:46.388Z,2.58
2019-05-20T15:03:15.173Z,2.52
2019-05-20T15:05:44.003Z,2.35
2019-05-20T15:08:12.738Z,2.90
2019-05-20T15:10:41.532Z,2.77
2019-05-20T15:13:10.283Z,2.47
2019-05-20T15:15:38.979Z,3.00
2019-05-20T15:18:07.813Z,2.62
2019-05-20T15:20:36.645Z,3.12
2019-05-20T15:23:05.376Z,2.90
2019-05-20T15:25:34.138Z,2.45
2019-05-20T15:28:02.953Z,2.50
2019-05-20T15:30:31.642Z,2.80
2019-05-20T15:33:00.365Z,2.70
2019-05-20T15:35:29.084Z,2.60
2019-05-20T15:37:58.648Z,2.67
2019-05-20T15:40:27.451Z,2.80
2019-05-20T15:42:56.350Z,2.80
2019-05-20T15:45:25.065Z,2.90
2019-05-20T15:47:53.783Z,2.60
2019-05-20T15:50:22.502Z,2.80
2019-05-20T15:52:51.297Z,2.70
2019-05-20T15:55:20.025Z,2.72
2019-05-20T15:57:48.816Z,2.42
2019-05-20T16:00:18.139Z,3.00
2019-05-20T16:02:46.858Z,3.00
2019-05-20T16:05:15.573Z,2.30
2019-05-20T16:07:44.321Z,2.22
2019-05-20T16:10:14.361Z,2.27
2019-05-20T16:12:43.099Z,2.37
2019-05-20T16:15:13.232Z,2.65
2019-05-20T16:17:41.924Z,1.90
2019-05-20T16:20:10.754Z,2.30
2019-05-20T16:22:39.582Z,2.08
2019-05-20T16:25:08.705Z,2.62
2019-05-20T16:27:37.421Z,2.37
2019-05-20T16:30:10.654Z,2.20
2019-05-20T16:32:39.481Z,2.50
2019-05-20T16:35:08.572Z,2.30
2019-05-20T16:37:37.314Z,2.15
2019-05-20T16:40:08.032Z,2.33
2019-05-20T16:42:36.847Z,2.40
2019-05-20T16:45:11.666Z,4.65
2019-05-20T16:47:38.640Z,2.52
2019-05-20T16:50:09.349Z,3.02
2019-05-20T16:52:38.708Z,2.98
2019-05-20T16:55:07.621Z,2.85
2019-05-20T16:57:36.414Z,2.87
2019-05-20T17:00:14.646Z,2.85
2019-05-20T17:02:36.876Z,3.83
2019-05-20T17:05:06.668Z,2.62
2019-05-20T17:07:35.401Z,2.45
2019-05-20T17:10:06.596Z,3.80
2019-05-20T17:12:35.397Z,2.77
2019-05-20T17:15:04.626Z,3.25
2019-05-20T17:17:33.381Z,3.02
2019-05-20T17:20:02.117Z,3.30
2019-05-20T17:22:31.047Z,2.98
2019-05-20T17:25:00.079Z,2.60
2019-05-20T17:27:28.798Z,3.08
2019-05-20T17:29:57.591Z,3.20
2019-05-20T17:32:26.318Z,2.72
2019-05-20T17:34:55.133Z,2.83
2019-05-20T17:37:24.019Z,3.05
2019-05-20T17:39:52.733Z,3.22
2019-05-20T17:42:21.477Z,3.08
2019-05-20T17:44:50.194Z,2.85
2019-05-20T17:47:19.020Z,2.70
2019-05-20T17:49:47.738Z,3.17
2019-05-20T17:52:16.464Z,3.85
2019-05-20T17:54:45.188Z,3.15
2019-05-20T17:57:13.904Z,3.08
2019-05-20T17:59:42.666Z,3.22
2019-05-20T18:02:12.752Z,3.08
2019-05-20T18:04:41.541Z,2.80
2019-05-20T18:07:10.415Z,3.92
2019-05-20T18:09:40.790Z,3.58
2019-05-20T18:12:11.287Z,3.98
2019-05-20T18:14:41.593Z,3.98
2019-05-20T18:17:11.453Z,3.87
2019-05-20T18:19:40.162Z,3.67
2019-05-20T18:22:08.900Z,3.27
2019-05-20T18:24:37.693Z,3.62
2019-05-20T18:27:06.594Z,3.72
2019-05-20T18:29:35.354Z,3.37
2019-05-20T18:32:04.271Z,4.05
2019-05-20T18:34:32.959Z,3.42
2019-05-20T18:37:01.702Z,3.75
2019-05-20T18:39:30.527Z,2.95
2019-05-20T18:41:59.340Z,3.37
2019-05-20T18:44:28.112Z,4.70
2019-05-20T18:46:56.889Z,4.62
2019-05-20T18:49:25.694Z,5.35
2019-05-20T18:51:54.402Z,5.95
2019-05-20T18:54:23.117Z,5.62
2019-05-20T18:56:51.879Z,5.85
2019-05-20T18:59:20.580Z,3.95
2019-05-20T19:02:03.909Z,4.15
2019-05-20T19:04:19.717Z,3.80
2019-05-20T19:06:48.436Z,3.62
2019-05-20T19:09:17.253Z,3.95
2019-05-20T19:11:46.053Z,3.80
2019-05-20T19:14:14.969Z,3.58
2019-05-20T19:16:43.720Z,4.00
2019-05-20T19:19:12.527Z,4.12
2019-05-20T19:21:41.335Z,4.33
2019-05-20T19:24:10.183Z,3.83
2019-05-20T19:26:38.916Z,4.08
2019-05-20T19:29:07.719Z,4.00
2019-05-20T19:31:36.461Z,4.15
2019-05-20T19:34:05.380Z,4.20
2019-05-20T19:36:34.121Z,3.35
2019-05-20T19:39:02.847Z,3.92
2019-05-20T19:41:31.564Z,4.08
2019-05-20T19:44:00.379Z,3.60
2019-05-20T19:46:31.658Z,3.42
2019-05-20T19:49:01.682Z,3.00
2019-05-20T19:51:30.570Z,3.40
2019-05-20T19:53:59.365Z,3.40
2019-05-20T19:56:28.226Z,6.25
2019-05-20T19:58:56.971Z,4.42
2019-05-20T20:01:25.793Z,4.70
2019-05-20T20:03:54.647Z,4.90
2019-05-20T20:06:24.835Z,4.70
2019-05-20T20:08:53.628Z,3.62
2019-05-20T20:11:22.453Z,3.52
2019-05-20T20:13:51.195Z,3.35
2019-05-20T20:16:19.912Z,3.35
2019-05-20T20:18:48.703Z,4.85
2019-05-20T20:21:17.595Z,3.55
2019-05-20T20:23:46.313Z,3.40
2019-05-20T20:26:15.111Z,3.52
2019-05-20T20:28:43.836Z,3.20
2019-05-20T20:31:12.687Z,3.58
2019-05-20T20:33:41.435Z,3.47
2019-05-20T20:36:10.235Z,4.35
2019-05-20T20:38:39.019Z,3.52
2019-05-20T20:41:07.820Z,3.60
2019-05-20T20:43:36.807Z,3.70
2019-05-20T20:46:07.588Z,3.90
2019-05-20T20:48:36.322Z,3.33
2019-05-20T20:51:05.205Z,3.47
2019-05-20T20:53:33.965Z,3.35
2019-05-20T20:56:02.958Z,3.50
2019-05-20T20:58:31.920Z,3.92
2019-05-20T21:01:00.670Z,4.90
2019-05-20T21:03:29.485Z,4.75
2019-05-20T21:05:58.274Z,4.62
2019-05-20T21:08:27.045Z,4.53
2019-05-20T21:10:56.188Z,4.37
2019-05-20T21:13:24.901Z,4.87
2019-05-20T21:15:53.809Z,4.78
2019-05-20T21:18:22.550Z,5.28
2019-05-20T21:20:51.288Z,4.58
2019-05-20T21:23:20.020Z,4.53
2019-05-20T21:25:50.738Z,4.58
2019-05-20T21:28:19.448Z,4.70
2019-05-20T21:30:48.162Z,4.42
2019-05-20T21:33:16.902Z,5.03
2019-05-20T21:35:45.758Z,4.47
2019-05-20T21:38:14.528Z,4.83
2019-05-20T21:40:43.327Z,4.17
2019-05-20T21:43:12.135Z,4.47
2019-05-20T21:45:40.849Z,5.22
2019-05-20T21:48:09.723Z,4.65
2019-05-20T21:50:38.433Z,4.80
2019-05-20T21:53:07.281Z,5.03
2019-05-20T21:55:36.101Z,5.95
2019-05-20T21:58:04.867Z,6.17
2019-05-20T22:00:38.522Z,6.03
2019-05-20T22:03:07.280Z,6.12
2019-05-20T22:05:36.020Z,7.87
2019-05-20T22:08:04.843Z,8.35
2019-05-20T22:10:33.593Z,8.65
2019-05-20T22:13:02.452Z,8.68
2019-05-20T22:15:31.321Z,8.65
2019-05-20T22:18:00.106Z,10.08
2019-05-20T22:20:28.845Z,9.18
2019-05-20T22:23:15.806Z,9.55
2019-05-20T22:25:46.499Z,9.45
2019-05-20T22:28:15.193Z,9.37
2019-05-20T22:30:43.998Z,8.78
2019-05-20T22:33:12.808Z,7.83
2019-05-20T22:35:41.534Z,8.38
2019-05-20T22:38:10.345Z,9.58
2019-05-20T22:40:39.074Z,10.85
2019-05-20T22:43:07.920Z,9.70
2019-05-20T22:45:36.649Z,9.50
2019-05-20T22:48:06.607Z,8.78
2019-05-20T22:50:35.371Z,10.58
2019-05-20T22:53:04.166Z,9.75
2019-05-20T22:55:32.892Z,10.80
2019-05-20T22:58:01.609Z,11.12
2019-05-20T23:00:30.353Z,11.75
2019-05-20T23:02:59.328Z,11.38
2019-05-20T23:05:28.038Z,9.40
2019-05-20T23:07:57.855Z,9.55
2019-05-20T23:10:28.499Z,12.30
2019-05-20T23:12:56.968Z,10.82
2019-05-20T23:15:25.754Z,11.08
2019-05-20T23:17:54.559Z,11.22
2019-05-20T23:20:23.486Z,11.80
2019-05-20T23:22:52.237Z,10.72
2019-05-20T23:25:20.968Z,9.33
2019-05-20T23:27:49.689Z,8.05
2019-05-20T23:30:18.640Z,7.90
2019-05-20T23:32:47.356Z,7.70
2019-05-20T23:35:16.110Z,8.10
2019-05-20T23:37:44.841Z,8.80
2019-05-20T23:40:13.637Z,8.25
2019-05-20T23:42:42.429Z,8.93
2019-05-20T23:45:12.448Z,7.70
2019-05-20T23:47:41.275Z,7.97
2019-05-20T23:50:10.400Z,8.38
2019-05-20T23:52:39.124Z,8.38
2019-05-20T23:55:08.769Z,8.88
2019-05-20T23:57:37.692Z,9.13
